createdAt,value
2023-03-16T00:00:03.699Z,3.87
2023-03-16T00:01:03.701Z,3.76
2023-03-16T00:02:03.809Z,3.91
2023-03-16T00:03:03.696Z,3.79
2023-03-16T00:04:03.597Z,3.73
2023-03-16T00:05:03.578Z,3.73
2023-03-16T00:06:03.538Z,3.73
2023-03-16T00:07:03.519Z,3.70
2023-03-16T00:08:03.491Z,3.69
2023-03-16T00:09:03.459Z,3.75
2023-03-16T00:10:03.430Z,3.73
2023-03-16T00:11:03.438Z,3.75
2023-03-16T00:12:03.383Z,3.68
2023-03-16T00:13:03.355Z,3.70
2023-03-16T00:14:03.322Z,3.62
2023-03-16T00:15:03.297Z,3.65
2023-03-16T00:16:03.320Z,3.57
2023-03-16T00:17:03.242Z,3.60
2023-03-16T00:18:03.211Z,3.70
2023-03-16T00:19:03.197Z,3.68
2023-03-16T00:20:03.165Z,3.55
2023-03-16T00:21:03.135Z,3.51
2023-03-16T00:22:03.096Z,3.51
2023-03-16T00:23:03.080Z,3.55
2023-03-16T00:24:03.045Z,3.58
2023-03-16T00:25:03.022Z,3.47
2023-03-16T00:26:02.987Z,3.50
2023-03-16T00:27:02.991Z,3.50
2023-03-16T00:28:02.930Z,3.54
2023-03-16T00:29:02.902Z,3.50
2023-03-16T00:30:02.874Z,3.50
2023-03-16T00:31:02.853Z,3.47
2023-03-16T00:32:02.851Z,3.47
2023-03-16T00:33:02.824Z,3.51
2023-03-16T00:34:02.806Z,3.48
2023-03-16T00:35:02.741Z,3.45
2023-03-16T00:36:02.898Z,3.48
2023-03-16T00:37:02.682Z,3.51
2023-03-16T00:38:02.646Z,3.47
2023-03-16T00:39:02.629Z,3.50
2023-03-16T00:40:02.593Z,3.43
2023-03-16T00:41:02.572Z,3.43
2023-03-16T00:42:02.532Z,3.47
2023-03-16T00:43:02.531Z,3.51
2023-03-16T00:44:02.480Z,3.45
2023-03-16T00:45:02.457Z,3.51
2023-03-16T00:46:02.457Z,3.50
2023-03-16T00:47:02.399Z,3.50
2023-03-16T00:48:02.366Z,3.50
2023-03-16T00:49:02.341Z,3.51
2023-03-16T00:50:02.309Z,3.47
2023-03-16T00:51:02.287Z,3.48
2023-03-16T00:52:02.261Z,3.48
2023-03-16T00:53:02.235Z,3.47
2023-03-16T00:54:02.221Z,3.40
2023-03-16T00:55:02.172Z,3.47
2023-03-16T00:56:02.139Z,3.51
2023-03-16T00:57:02.116Z,3.47
2023-03-16T00:58:02.083Z,3.48
2023-03-16T00:59:02.083Z,3.51
2023-03-16T01:00:02.028Z,3.51
2023-03-16T01:01:02.061Z,3.52
2023-03-16T01:02:01.976Z,3.48
2023-03-16T01:03:02.003Z,3.45
2023-03-16T01:04:01.921Z,3.48
2023-03-16T01:05:01.908Z,3.42
2023-03-16T01:06:01.875Z,3.42
2023-03-16T01:07:01.840Z,3.42
2023-03-16T01:08:01.829Z,3.33
2023-03-16T01:09:01.787Z,3.45
2023-03-16T01:10:01.749Z,3.48
2023-03-16T01:11:01.728Z,3.42
2023-03-16T01:12:01.695Z,3.40
2023-03-16T01:13:01.677Z,3.33
2023-03-16T01:14:01.643Z,3.47
2023-03-16T01:15:01.634Z,3.43
2023-03-16T01:16:01.593Z,3.40
2023-03-16T01:17:01.622Z,3.40
2023-03-16T01:18:01.534Z,3.35
2023-03-16T01:19:01.524Z,3.48
2023-03-16T01:20:01.473Z,3.43
2023-03-16T01:21:01.443Z,3.52
2023-03-16T01:22:01.428Z,3.47
2023-03-16T01:23:01.386Z,3.33
2023-03-16T01:24:01.373Z,3.48
2023-03-16T01:25:01.343Z,3.43
2023-03-16T01:26:01.312Z,3.43
2023-03-16T01:27:01.282Z,3.42
2023-03-16T01:28:01.254Z,3.33
2023-03-16T01:29:01.222Z,3.39
2023-03-16T01:30:01.198Z,3.40
2023-03-16T01:31:01.244Z,3.32
2023-03-16T01:32:01.146Z,3.31
2023-03-16T01:33:01.207Z,3.31
2023-03-16T01:34:01.097Z,3.29
2023-03-16T01:35:01.058Z,3.31
2023-03-16T01:36:01.101Z,3.26
2023-03-16T01:37:01.002Z,3.29
2023-03-16T01:38:00.975Z,3.28
2023-03-16T01:39:00.953Z,3.31
2023-03-16T01:40:00.943Z,3.32
2023-03-16T01:41:00.897Z,3.39
2023-03-16T01:42:00.862Z,3.28
2023-03-16T01:43:00.830Z,3.33
2023-03-16T01:44:00.812Z,3.32
2023-03-16T01:45:00.773Z,3.35
2023-03-16T01:46:00.776Z,3.39
2023-03-16T01:47:00.739Z,3.31
2023-03-16T01:48:00.694Z,3.40
2023-03-16T01:49:00.664Z,3.29
2023-03-16T01:50:00.644Z,3.29
2023-03-16T01:51:00.608Z,3.29
2023-03-16T01:52:00.579Z,3.31
2023-03-16T01:53:00.552Z,3.29
2023-03-16T01:54:00.526Z,3.31
2023-03-16T01:55:00.493Z,3.32
2023-03-16T01:56:00.468Z,3.28
2023-03-16T01:57:00.450Z,3.33
2023-03-16T01:58:00.414Z,3.28
2023-03-16T01:59:00.382Z,3.28
2023-03-16T02:00:00.359Z,3.33
2023-03-16T02:01:00.368Z,3.31
2023-03-16T02:02:00.301Z,3.26
2023-03-16T02:03:00.293Z,3.28
2023-03-16T02:04:00.311Z,3.26
2023-03-16T02:05:00.216Z,3.26
2023-03-16T02:06:00.194Z,3.28
2023-03-16T02:07:00.163Z,3.31
2023-03-16T02:08:00.137Z,3.14
2023-03-16T02:09:00.106Z,3.29
2023-03-16T02:10:00.117Z,3.28
2023-03-16T02:11:00.060Z,3.28
2023-03-16T02:12:00.026Z,3.26
2023-03-16T02:12:59.994Z,3.18
2023-03-16T02:13:59.977Z,3.29
2023-03-16T02:14:59.948Z,3.31
2023-03-16T02:15:59.964Z,3.29
2023-03-16T02:16:59.883Z,3.20
2023-03-16T02:17:59.856Z,3.21
2023-03-16T02:18:59.847Z,3.21
2023-03-16T02:19:59.801Z,3.14
2023-03-16T02:20:59.769Z,3.24
2023-03-16T02:21:59.760Z,3.20
2023-03-16T02:22:59.717Z,3.14
2023-03-16T02:23:59.686Z,3.18
2023-03-16T02:24:59.661Z,3.18
2023-03-16T02:25:59.642Z,3.23
2023-03-16T02:26:59.601Z,3.10
2023-03-16T02:27:59.577Z,3.23
2023-03-16T02:28:59.558Z,3.26
2023-03-16T02:29:59.524Z,3.28
2023-03-16T02:30:59.519Z,3.24
2023-03-16T02:31:59.463Z,3.23
2023-03-16T02:32:59.538Z,3.17
2023-03-16T02:33:59.410Z,3.24
2023-03-16T02:34:59.414Z,3.18
2023-03-16T02:35:59.393Z,3.23
2023-03-16T02:36:59.326Z,3.21
2023-03-16T02:37:59.319Z,3.21
2023-03-16T02:38:59.268Z,3.24
2023-03-16T02:39:59.238Z,3.24
2023-03-16T02:40:59.209Z,3.15
2023-03-16T02:41:59.200Z,3.21
2023-03-16T02:42:59.159Z,3.21
2023-03-16T02:43:59.131Z,3.21
2023-03-16T02:44:59.123Z,3.26
2023-03-16T02:45:59.101Z,3.23
2023-03-16T02:46:59.043Z,3.24
2023-03-16T02:47:59.019Z,3.17
2023-03-16T02:48:58.989Z,3.21
2023-03-16T02:49:58.958Z,3.23
2023-03-16T02:50:58.951Z,3.21
2023-03-16T02:51:58.902Z,3.20
2023-03-16T02:52:58.871Z,3.17
2023-03-16T02:53:58.844Z,3.18
2023-03-16T02:54:58.816Z,3.28
2023-03-16T02:55:58.787Z,3.28
2023-03-16T02:56:58.760Z,3.26
2023-03-16T02:57:58.732Z,3.18
2023-03-16T02:58:58.713Z,3.33
2023-03-16T02:59:58.676Z,3.29
2023-03-16T03:00:58.650Z,3.23
2023-03-16T03:01:58.622Z,3.24
2023-03-16T03:02:58.635Z,3.24
2023-03-16T03:03:58.565Z,3.18
2023-03-16T03:04:58.535Z,3.24
2023-03-16T03:05:58.520Z,3.29
2023-03-16T03:06:58.509Z,3.29
2023-03-16T03:07:58.455Z,3.29
2023-03-16T03:08:58.428Z,3.23
2023-03-16T03:09:58.403Z,3.28
2023-03-16T03:10:58.372Z,3.23
2023-03-16T03:11:58.339Z,3.33
2023-03-16T03:12:58.316Z,3.24
2023-03-16T03:13:58.284Z,3.23
2023-03-16T03:14:58.254Z,3.17
2023-03-16T03:15:58.274Z,3.26
2023-03-16T03:16:58.201Z,3.26
2023-03-16T03:17:58.177Z,3.29
2023-03-16T03:18:58.152Z,3.26
2023-03-16T03:19:58.120Z,3.29
2023-03-16T03:20:58.087Z,3.26
2023-03-16T03:21:58.071Z,3.31
2023-03-16T03:22:58.050Z,3.31
2023-03-16T03:23:58.002Z,3.31
2023-03-16T03:24:57.981Z,3.31
2023-03-16T03:25:57.951Z,3.33
2023-03-16T03:26:57.919Z,3.32
2023-03-16T03:27:57.985Z,3.31
2023-03-16T03:28:57.863Z,3.35
2023-03-16T03:29:57.835Z,3.43
2023-03-16T03:30:57.807Z,3.33
2023-03-16T03:31:57.836Z,3.43
2023-03-16T03:32:57.777Z,3.36
2023-03-16T03:33:57.736Z,3.39
2023-03-16T03:34:57.702Z,3.45
2023-03-16T03:35:57.750Z,3.33
2023-03-16T03:36:57.638Z,3.43
2023-03-16T03:37:57.616Z,3.42
2023-03-16T03:38:57.612Z,3.40
2023-03-16T03:39:57.561Z,3.33
2023-03-16T03:40:57.525Z,3.36
2023-03-16T03:41:57.505Z,3.42
2023-03-16T03:42:57.470Z,3.36
2023-03-16T03:43:57.443Z,3.29
2023-03-16T03:44:57.418Z,3.43
2023-03-16T03:45:57.540Z,3.42
2023-03-16T03:46:57.522Z,3.40
2023-03-16T03:47:57.334Z,3.31
2023-03-16T03:48:57.316Z,3.33
2023-03-16T03:49:57.279Z,3.47
2023-03-16T03:50:57.253Z,3.39
2023-03-16T03:51:57.221Z,3.50
2023-03-16T03:52:57.189Z,3.42
2023-03-16T03:53:57.171Z,3.36
2023-03-16T03:54:57.158Z,3.36
2023-03-16T03:55:57.106Z,3.42
2023-03-16T03:56:57.075Z,3.48
2023-03-16T03:57:57.058Z,3.43
2023-03-16T03:58:57.020Z,3.40
2023-03-16T03:59:57.011Z,3.36
2023-03-16T04:00:56.968Z,3.47
2023-03-16T04:01:56.961Z,3.45
2023-03-16T04:02:57.099Z,3.51
2023-03-16T04:03:56.889Z,3.45
2023-03-16T04:04:56.855Z,3.50
2023-03-16T04:05:56.830Z,3.52
2023-03-16T04:06:56.797Z,3.45
2023-03-16T04:07:56.771Z,3.50
2023-03-16T04:08:56.745Z,3.50
2023-03-16T04:09:56.718Z,3.51
2023-03-16T04:10:56.709Z,3.48
2023-03-16T04:11:56.662Z,3.45
2023-03-16T04:12:56.625Z,3.42
2023-03-16T04:13:56.603Z,3.47
2023-03-16T04:14:56.579Z,3.55
2023-03-16T04:15:56.548Z,3.54
2023-03-16T04:16:56.588Z,3.66
2023-03-16T04:17:56.494Z,3.61
2023-03-16T04:18:56.460Z,3.51
2023-03-16T04:19:56.437Z,3.54
2023-03-16T04:20:56.404Z,3.66
2023-03-16T04:21:56.380Z,3.51
2023-03-16T04:22:56.347Z,3.51
2023-03-16T04:23:56.321Z,3.55
2023-03-16T04:24:56.307Z,3.57
2023-03-16T04:25:56.267Z,3.69
2023-03-16T04:26:56.265Z,3.66
2023-03-16T04:27:56.210Z,3.65
2023-03-16T04:28:56.180Z,3.69
2023-03-16T04:29:56.162Z,3.73
2023-03-16T04:30:56.187Z,3.68
2023-03-16T04:31:56.102Z,3.69
2023-03-16T04:32:56.165Z,3.70
2023-03-16T04:33:56.043Z,3.68
2023-03-16T04:34:56.011Z,3.69
2023-03-16T04:35:56.052Z,3.72
2023-03-16T04:36:55.956Z,3.73
2023-03-16T04:37:55.934Z,3.73
2023-03-16T04:38:55.903Z,3.68
2023-03-16T04:39:55.875Z,3.73
2023-03-16T04:40:55.845Z,3.68
2023-03-16T04:41:55.822Z,3.68
2023-03-16T04:42:55.821Z,3.75
2023-03-16T04:43:55.765Z,3.66
2023-03-16T04:44:55.733Z,3.70
2023-03-16T04:45:55.723Z,3.73
2023-03-16T04:46:55.676Z,3.69
2023-03-16T04:47:55.658Z,3.83
2023-03-16T04:48:55.620Z,3.72
2023-03-16T04:49:55.594Z,3.75
2023-03-16T04:50:55.569Z,3.76
2023-03-16T04:51:55.540Z,3.79
2023-03-16T04:52:55.522Z,3.76
2023-03-16T04:53:55.485Z,3.75
2023-03-16T04:54:55.456Z,3.70
2023-03-16T04:55:55.432Z,3.78
2023-03-16T04:56:55.398Z,3.80
2023-03-16T04:57:55.379Z,3.75
2023-03-16T04:58:55.364Z,3.76
2023-03-16T04:59:55.320Z,3.73
2023-03-16T05:00:55.285Z,3.75
2023-03-16T05:01:55.323Z,3.79
2023-03-16T05:02:55.231Z,3.79
2023-03-16T05:03:55.211Z,3.79
2023-03-16T05:04:55.176Z,3.76
2023-03-16T05:05:55.252Z,3.76
2023-03-16T05:06:55.117Z,3.78
2023-03-16T05:07:55.111Z,3.88
2023-03-16T05:08:55.068Z,3.83
2023-03-16T05:09:55.032Z,3.93
2023-03-16T05:10:55.001Z,3.78
2023-03-16T05:11:54.989Z,3.87
2023-03-16T05:12:54.947Z,3.93
2023-03-16T05:13:54.927Z,3.91
2023-03-16T05:14:54.924Z,3.96
2023-03-16T05:15:54.921Z,3.96
2023-03-16T05:16:54.840Z,3.91
2023-03-16T05:17:54.812Z,3.91
2023-03-16T05:18:54.780Z,3.97
2023-03-16T05:19:54.759Z,3.97
2023-03-16T05:20:54.724Z,3.87
2023-03-16T05:21:54.699Z,3.90
2023-03-16T05:22:54.672Z,3.86
2023-03-16T05:23:54.663Z,3.90
2023-03-16T05:24:54.612Z,3.98
2023-03-16T05:25:54.588Z,3.83
2023-03-16T05:26:54.557Z,3.94
2023-03-16T05:27:54.538Z,3.80
2023-03-16T05:28:54.498Z,3.98
2023-03-16T05:29:54.473Z,3.97
2023-03-16T05:30:54.517Z,3.88
2023-03-16T05:31:54.419Z,3.93
2023-03-16T05:32:54.459Z,3.90
2023-03-16T05:33:54.363Z,4.05
2023-03-16T05:34:54.335Z,4.05
2023-03-16T05:35:54.384Z,4.04
2023-03-16T05:36:54.279Z,4.06
2023-03-16T05:37:54.248Z,4.06
2023-03-16T05:38:54.225Z,4.05
2023-03-16T05:39:54.204Z,4.06
2023-03-16T05:40:54.172Z,4.04
2023-03-16T05:41:54.135Z,4.15
2023-03-16T05:42:54.119Z,4.09
2023-03-16T05:43:54.095Z,4.11
2023-03-16T05:44:54.074Z,4.14
2023-03-16T05:45:54.031Z,4.11
2023-03-16T05:46:54.126Z,4.08
2023-03-16T05:47:53.972Z,4.12
2023-03-16T05:48:53.946Z,4.16
2023-03-16T05:49:53.920Z,4.12
2023-03-16T05:50:53.901Z,4.09
2023-03-16T05:51:53.861Z,4.12
2023-03-16T05:52:53.836Z,4.11
2023-03-16T05:53:53.805Z,4.23
2023-03-16T05:54:53.781Z,4.24
2023-03-16T05:55:53.757Z,4.20
2023-03-16T05:56:53.728Z,4.20
2023-03-16T05:57:53.700Z,4.20
2023-03-16T05:58:53.693Z,4.20
2023-03-16T05:59:53.634Z,4.20
2023-03-16T06:00:53.617Z,4.18
2023-03-16T06:01:53.588Z,4.16
2023-03-16T06:02:53.624Z,4.15
2023-03-16T06:03:53.670Z,4.18
2023-03-16T06:04:53.496Z,4.22
2023-03-16T06:05:53.473Z,4.26
2023-03-16T06:06:53.452Z,4.26
2023-03-16T06:07:53.433Z,4.26
2023-03-16T06:08:53.388Z,4.23
2023-03-16T06:09:53.356Z,4.26
2023-03-16T06:10:53.332Z,4.24
2023-03-16T06:11:53.311Z,4.27
2023-03-16T06:12:53.278Z,4.24
2023-03-16T06:13:53.246Z,4.27
2023-03-16T06:14:53.221Z,4.29
2023-03-16T06:15:53.347Z,4.24
2023-03-16T06:16:53.171Z,4.27
2023-03-16T06:17:53.133Z,4.32
2023-03-16T06:18:53.138Z,4.37
2023-03-16T06:19:53.082Z,4.32
2023-03-16T06:20:53.052Z,4.26
2023-03-16T06:21:53.059Z,4.36
2023-03-16T06:22:52.997Z,4.40
2023-03-16T06:23:52.967Z,4.36
2023-03-16T06:24:52.948Z,4.37
2023-03-16T06:25:52.916Z,4.41
2023-03-16T06:26:52.886Z,4.37
2023-03-16T06:27:52.860Z,4.42
2023-03-16T06:28:52.832Z,4.41
2023-03-16T06:29:52.816Z,4.32
2023-03-16T06:30:52.779Z,4.45
2023-03-16T06:31:52.867Z,4.41
2023-03-16T06:32:52.728Z,4.48
2023-03-16T06:33:52.691Z,4.45
2023-03-16T06:34:52.686Z,4.42
2023-03-16T06:35:52.694Z,4.42
2023-03-16T06:36:52.612Z,4.44
2023-03-16T06:37:52.577Z,4.44
2023-03-16T06:38:52.553Z,4.47
2023-03-16T06:39:52.521Z,4.50
2023-03-16T06:40:52.498Z,4.48
2023-03-16T06:41:52.467Z,4.51
2023-03-16T06:42:52.440Z,4.44
2023-03-16T06:43:52.412Z,4.45
2023-03-16T06:44:52.386Z,4.48
2023-03-16T06:45:52.404Z,4.50
2023-03-16T06:46:52.327Z,4.58
2023-03-16T06:47:52.295Z,4.59
2023-03-16T06:48:52.275Z,4.55
2023-03-16T06:49:52.248Z,4.51
2023-03-16T06:50:52.243Z,4.48
2023-03-16T06:51:52.190Z,4.50
2023-03-16T06:52:52.163Z,4.55
2023-03-16T06:53:52.134Z,4.63
2023-03-16T06:54:52.104Z,4.54
2023-03-16T06:55:52.074Z,4.48
2023-03-16T06:56:52.048Z,4.58
2023-03-16T06:57:52.026Z,4.59
2023-03-16T06:58:51.993Z,4.72
2023-03-16T06:59:51.965Z,4.55
2023-03-16T07:00:51.975Z,4.62
2023-03-16T07:01:51.913Z,4.62
2023-03-16T07:02:51.885Z,4.66
2023-03-16T07:03:51.910Z,4.66
2023-03-16T07:04:51.828Z,4.78
2023-03-16T07:05:51.794Z,4.75
2023-03-16T07:06:51.793Z,4.84
2023-03-16T07:07:51.736Z,4.78
2023-03-16T07:08:51.712Z,4.78
2023-03-16T07:09:51.680Z,4.85
2023-03-16T07:10:51.671Z,4.84
2023-03-16T07:11:51.625Z,4.92
2023-03-16T07:12:51.601Z,4.92
2023-03-16T07:13:51.571Z,5.04
2023-03-16T07:14:54.075Z,5.06
2023-03-16T07:15:51.511Z,5.00
2023-03-16T07:16:51.536Z,4.99
2023-03-16T07:17:51.460Z,5.00
2023-03-16T07:18:51.432Z,5.07
2023-03-16T07:19:51.411Z,5.09
2023-03-16T07:20:51.382Z,5.07
2023-03-16T07:21:51.350Z,5.15
2023-03-16T07:22:51.348Z,5.21
2023-03-16T07:23:51.292Z,5.18
2023-03-16T07:24:51.268Z,5.22
2023-03-16T07:25:51.236Z,5.31
2023-03-16T07:26:51.219Z,5.35
2023-03-16T07:27:51.181Z,5.31
2023-03-16T07:28:51.159Z,5.31
2023-03-16T07:29:51.125Z,5.28
2023-03-16T07:31:03.073Z,5.38
2023-03-16T07:31:51.120Z,5.31
2023-03-16T07:32:51.118Z,5.39
2023-03-16T07:33:51.025Z,5.35
2023-03-16T07:34:50.990Z,5.38
2023-03-16T07:35:51.008Z,5.43
2023-03-16T07:36:50.938Z,5.39
2023-03-16T07:37:50.945Z,5.43
2023-03-16T07:38:50.906Z,5.40
2023-03-16T07:39:50.854Z,5.40
2023-03-16T07:40:50.829Z,5.49
2023-03-16T07:41:50.798Z,5.51
2023-03-16T07:42:50.779Z,5.46
2023-03-16T07:43:50.743Z,5.51
2023-03-16T07:44:51.953Z,5.58
2023-03-16T07:45:50.717Z,5.53
2023-03-16T07:46:50.661Z,5.49
2023-03-16T07:47:50.635Z,5.61
2023-03-16T07:48:50.607Z,5.65
2023-03-16T07:49:50.574Z,5.65
2023-03-16T07:50:50.559Z,5.67
2023-03-16T07:51:50.520Z,5.68
2023-03-16T07:52:50.491Z,5.78
2023-03-16T07:53:50.460Z,5.71
2023-03-16T07:54:50.464Z,5.83
2023-03-16T07:55:50.415Z,5.75
2023-03-16T07:56:50.385Z,5.79
2023-03-16T07:57:50.360Z,5.82
2023-03-16T07:58:50.348Z,5.83
2023-03-16T07:59:50.296Z,5.81
2023-03-16T08:00:50.273Z,5.94
2023-03-16T08:01:50.244Z,5.93
2023-03-16T08:02:50.262Z,5.86
2023-03-16T08:03:50.243Z,5.97
2023-03-16T08:04:50.166Z,6.00
2023-03-16T08:05:50.132Z,6.00
2023-03-16T08:06:50.111Z,5.91
2023-03-16T08:07:50.098Z,5.99
2023-03-16T08:08:50.050Z,6.08
2023-03-16T08:09:50.023Z,6.04
2023-03-16T08:10:50.019Z,6.01
2023-03-16T08:11:49.969Z,6.01
2023-03-16T08:12:49.994Z,6.08
2023-03-16T08:13:49.913Z,6.00
2023-03-16T08:14:49.887Z,6.06
2023-03-16T08:15:49.906Z,6.14
2023-03-16T08:16:49.841Z,6.04
2023-03-16T08:17:49.806Z,6.04
2023-03-16T08:18:49.785Z,6.06
2023-03-16T08:19:49.749Z,6.08
2023-03-16T08:20:49.732Z,6.03
2023-03-16T08:22:01.160Z,6.08
2023-03-16T08:22:49.671Z,6.04
2023-03-16T08:23:49.653Z,6.17
2023-03-16T08:24:49.617Z,6.09
2023-03-16T08:25:49.589Z,6.18
2023-03-16T08:26:49.593Z,6.06
2023-03-16T08:27:49.533Z,6.11
2023-03-16T08:28:49.554Z,6.19
2023-03-16T08:29:49.477Z,6.17
2023-03-16T08:30:49.541Z,6.19
2023-03-16T08:31:49.440Z,6.12
2023-03-16T08:32:49.606Z,6.22
2023-03-16T08:33:49.365Z,6.14
2023-03-16T08:34:49.349Z,6.31
2023-03-16T08:35:49.319Z,6.30
2023-03-16T08:36:49.294Z,6.31
2023-03-16T08:37:49.263Z,6.34
2023-03-16T08:39:05.613Z,6.38
2023-03-16T08:39:49.207Z,6.36
2023-03-16T08:40:49.184Z,6.38
2023-03-16T08:41:49.154Z,6.37
2023-03-16T08:42:49.145Z,6.48
2023-03-16T08:43:49.095Z,6.40
2023-03-16T08:44:49.069Z,6.51
2023-03-16T08:45:49.045Z,6.59
2023-03-16T08:46:49.136Z,6.56
2023-03-16T08:47:49.038Z,6.62
2023-03-16T08:48:48.959Z,6.62
2023-03-16T08:49:48.933Z,6.71
2023-03-16T08:50:48.916Z,6.73
2023-03-16T08:51:48.876Z,6.73
2023-03-16T08:52:48.855Z,6.76
2023-03-16T08:53:48.847Z,6.73
2023-03-16T08:55:01.956Z,6.79
2023-03-16T08:55:48.772Z,6.81
2023-03-16T08:56:48.737Z,6.89
2023-03-16T08:57:48.711Z,6.80
2023-03-16T08:58:50.530Z,6.89
2023-03-16T08:59:48.655Z,6.88
2023-03-16T09:00:50.523Z,6.95
2023-03-16T09:01:48.629Z,7.03
2023-03-16T09:02:48.577Z,6.91
2023-03-16T09:03:48.584Z,6.98
2023-03-16T09:04:48.521Z,6.94
2023-03-16T09:05:48.499Z,6.91
2023-03-16T09:06:55.827Z,6.95
2023-03-16T09:07:49.041Z,6.95
2023-03-16T09:08:48.414Z,7.03
2023-03-16T09:09:48.382Z,7.05
2023-03-16T09:10:48.374Z,6.92
2023-03-16T09:11:48.330Z,6.98
2023-03-16T09:12:48.301Z,7.05
2023-03-16T09:13:48.273Z,7.12
2023-03-16T09:14:48.271Z,7.16
2023-03-16T09:15:48.283Z,7.03
2023-03-16T09:16:48.203Z,7.15
2023-03-16T09:17:48.186Z,7.16
2023-03-16T09:18:48.140Z,7.28
2023-03-16T09:19:51.514Z,7.27
2023-03-16T09:20:48.094Z,7.31
2023-03-16T09:21:48.057Z,7.27
2023-03-16T09:22:48.049Z,7.25
2023-03-16T09:23:48.002Z,7.28
2023-03-16T09:24:48.019Z,7.30
2023-03-16T09:25:47.953Z,7.32
2023-03-16T09:26:47.968Z,7.34
2023-03-16T09:27:47.896Z,7.40
2023-03-16T09:28:47.872Z,7.48
2023-03-16T09:29:47.842Z,7.43
2023-03-16T09:30:47.865Z,7.52
2023-03-16T09:31:47.855Z,7.46
2023-03-16T09:32:47.806Z,7.49
2023-03-16T09:33:47.733Z,7.50
2023-03-16T09:34:47.711Z,7.55
2023-03-16T09:35:47.697Z,7.49
2023-03-16T09:36:47.661Z,7.61
2023-03-16T09:38:04.647Z,7.64
2023-03-16T09:38:47.604Z,7.57
2023-03-16T09:39:47.569Z,7.58
2023-03-16T09:40:47.606Z,7.61
2023-03-16T09:41:47.535Z,7.60
2023-03-16T09:42:47.495Z,7.69
2023-03-16T09:43:47.468Z,7.74
2023-03-16T09:44:47.440Z,7.64
2023-03-16T09:45:47.453Z,7.64
2023-03-16T09:46:47.411Z,7.74
2023-03-16T09:47:47.360Z,7.82
2023-03-16T09:48:47.336Z,7.69
2023-03-16T09:49:47.309Z,7.72
2023-03-16T09:50:49.124Z,7.75
2023-03-16T09:51:47.257Z,7.74
2023-03-16T09:52:47.225Z,7.77
2023-03-16T09:53:47.202Z,7.75
2023-03-16T09:54:47.176Z,7.82
2023-03-16T09:55:47.149Z,7.80
2023-03-16T09:56:47.118Z,7.82
2023-03-16T09:57:47.103Z,7.82
2023-03-16T09:58:47.071Z,7.86
2023-03-16T09:59:47.043Z,7.87
2023-03-16T10:00:47.019Z,7.89
2023-03-16T10:01:46.991Z,7.92
2023-03-16T10:02:46.983Z,7.95
2023-03-16T10:03:47.004Z,7.95
2023-03-16T10:04:46.906Z,7.97
2023-03-16T10:05:46.881Z,8.04
2023-03-16T10:06:46.853Z,7.98
2023-03-16T10:07:46.830Z,8.07
2023-03-16T10:08:46.811Z,8.00
2023-03-16T10:09:46.776Z,8.04
2023-03-16T10:10:46.746Z,8.05
2023-03-16T10:11:46.727Z,8.02
2023-03-16T10:12:46.690Z,8.18
2023-03-16T10:13:46.669Z,8.11
2023-03-16T10:14:46.653Z,8.10
2023-03-16T10:15:46.619Z,8.07
2023-03-16T10:16:46.662Z,8.07
2023-03-16T10:17:46.563Z,8.16
2023-03-16T10:18:46.552Z,8.16
2023-03-16T10:19:46.519Z,8.07
2023-03-16T10:20:46.480Z,8.11
2023-03-16T10:21:46.455Z,8.18
2023-03-16T10:22:46.423Z,8.08
2023-03-16T10:23:46.405Z,8.10
2023-03-16T10:24:46.373Z,8.12
2023-03-16T10:25:46.366Z,8.07
2023-03-16T10:26:46.321Z,8.10
2023-03-16T10:27:46.310Z,8.02
2023-03-16T10:28:46.268Z,7.98
2023-03-16T10:29:46.247Z,7.98
2023-03-16T10:30:46.216Z,7.92
2023-03-16T10:31:46.270Z,7.90
2023-03-16T10:32:46.188Z,7.95
2023-03-16T10:33:46.134Z,7.89
2023-03-16T10:34:46.140Z,7.90
2023-03-16T10:35:46.088Z,7.92
2023-03-16T10:36:46.087Z,7.95
2023-03-16T10:37:46.027Z,8.01
2023-03-16T10:38:45.996Z,7.95
2023-03-16T10:39:45.985Z,8.01
2023-03-16T10:40:45.946Z,8.07
2023-03-16T10:41:45.983Z,8.12
2023-03-16T10:42:45.888Z,8.11
2023-03-16T10:43:45.873Z,8.22
2023-03-16T10:44:45.838Z,8.15
2023-03-16T10:45:45.849Z,8.25
2023-03-16T10:46:45.987Z,8.22
2023-03-16T10:47:45.765Z,8.20
2023-03-16T10:48:45.741Z,8.25
2023-03-16T10:49:45.710Z,8.23
2023-03-16T10:50:45.704Z,8.33
2023-03-16T10:51:45.661Z,8.34
2023-03-16T10:52:45.634Z,8.38
2023-03-16T10:53:45.608Z,8.37
2023-03-16T10:54:45.576Z,8.34
2023-03-16T10:55:45.554Z,8.43
2023-03-16T10:56:45.526Z,8.43
2023-03-16T10:57:45.511Z,8.41
2023-03-16T10:58:45.477Z,8.53
2023-03-16T10:59:45.449Z,8.53
2023-03-16T11:00:45.428Z,8.61
2023-03-16T11:01:45.398Z,8.62
2023-03-16T11:02:45.366Z,8.59
2023-03-16T11:03:45.346Z,8.61
2023-03-16T11:04:45.344Z,8.52
2023-03-16T11:05:45.291Z,8.61
2023-03-16T11:06:45.285Z,8.58
2023-03-16T11:07:45.238Z,8.63
2023-03-16T11:08:45.208Z,8.52
2023-03-16T11:09:45.216Z,8.62
2023-03-16T11:10:55.055Z,8.68
2023-03-16T11:11:45.128Z,8.61
2023-03-16T11:12:45.104Z,8.73
2023-03-16T11:13:45.112Z,8.62
2023-03-16T11:14:45.079Z,8.59
2023-03-16T11:15:45.032Z,8.56
2023-03-16T11:16:45.101Z,8.59
2023-03-16T11:17:44.985Z,8.62
2023-03-16T11:18:44.947Z,8.70
2023-03-16T11:19:44.928Z,8.73
2023-03-16T11:20:44.900Z,8.70
2023-03-16T11:21:44.879Z,8.76
2023-03-16T11:22:44.881Z,8.71
2023-03-16T11:23:44.821Z,8.71
2023-03-16T11:24:44.793Z,8.74
2023-03-16T11:25:44.766Z,8.83
2023-03-16T11:26:44.741Z,8.80
2023-03-16T11:27:44.711Z,8.80
2023-03-16T11:28:44.695Z,8.81
2023-03-16T11:29:44.658Z,8.91
2023-03-16T11:30:44.707Z,8.92
2023-03-16T11:31:44.603Z,8.83
2023-03-16T11:32:44.679Z,8.87
2023-03-16T11:33:44.562Z,8.89
2023-03-16T11:34:44.532Z,8.83
2023-03-16T11:35:58.075Z,8.81
2023-03-16T11:36:44.480Z,8.74
2023-03-16T11:37:44.463Z,8.79
2023-03-16T11:38:44.448Z,8.91
2023-03-16T11:39:44.416Z,8.81
2023-03-16T11:40:44.374Z,8.76
2023-03-16T11:41:44.344Z,8.80
2023-03-16T11:42:44.313Z,8.84
2023-03-16T11:43:44.297Z,8.80
2023-03-16T11:44:44.262Z,8.83
2023-03-16T11:45:44.265Z,8.86
2023-03-16T11:46:44.210Z,8.87
2023-03-16T11:47:44.191Z,8.87
2023-03-16T11:48:44.164Z,8.79
2023-03-16T11:49:44.137Z,8.81
2023-03-16T11:50:44.108Z,8.89
2023-03-16T11:51:44.084Z,8.89
2023-03-16T11:52:44.051Z,8.86
2023-03-16T11:53:44.042Z,8.81
2023-03-16T11:54:44.024Z,8.81
2023-03-16T11:55:43.978Z,8.71
2023-03-16T11:56:43.941Z,8.80
2023-03-16T11:57:43.917Z,8.84
2023-03-16T11:58:43.894Z,8.81
2023-03-16T11:59:49.005Z,8.76
2023-03-16T12:00:43.837Z,8.91
2023-03-16T12:01:57.934Z,8.91
2023-03-16T12:02:44.020Z,8.91
2023-03-16T12:03:43.808Z,8.89
2023-03-16T12:04:43.732Z,8.94
2023-03-16T12:05:45.015Z,8.89
2023-03-16T12:06:43.686Z,8.94
2023-03-16T12:07:43.655Z,8.87
2023-03-16T12:08:43.624Z,8.92
2023-03-16T12:09:43.605Z,8.95
2023-03-16T12:10:43.596Z,8.95
2023-03-16T12:11:43.551Z,8.92
2023-03-16T12:12:43.523Z,8.86
2023-03-16T12:13:43.498Z,8.87
2023-03-16T12:14:43.477Z,8.95
2023-03-16T12:15:43.458Z,8.99
2023-03-16T12:16:49.586Z,8.92
2023-03-16T12:17:43.390Z,8.87
2023-03-16T12:18:43.359Z,8.84
2023-03-16T12:19:43.334Z,8.92
2023-03-16T12:20:43.305Z,8.94
2023-03-16T12:21:43.285Z,8.91
2023-03-16T12:22:43.255Z,8.95
2023-03-16T12:23:43.232Z,9.05
2023-03-16T12:24:43.208Z,9.04
2023-03-16T12:25:43.178Z,9.10
2023-03-16T12:26:43.167Z,9.08
2023-03-16T12:27:43.135Z,9.20
2023-03-16T12:28:43.097Z,9.13
2023-03-16T12:29:43.077Z,9.18
2023-03-16T12:30:43.052Z,9.20
2023-03-16T12:31:43.185Z,9.20
2023-03-16T12:32:43.037Z,9.21
2023-03-16T12:33:42.967Z,9.24
2023-03-16T12:34:42.935Z,9.29
2023-03-16T12:35:43.020Z,9.35
2023-03-16T12:36:42.907Z,9.24
2023-03-16T12:37:42.858Z,9.24
2023-03-16T12:38:42.832Z,9.33
2023-03-16T12:39:42.810Z,9.31
2023-03-16T12:40:42.782Z,9.18
2023-03-16T12:41:42.761Z,9.32
2023-03-16T12:42:42.761Z,9.38
2023-03-16T12:43:42.796Z,9.33
2023-03-16T12:44:42.679Z,9.23
2023-03-16T12:45:42.707Z,9.26
2023-03-16T12:46:42.637Z,9.26
2023-03-16T12:47:42.602Z,9.28
2023-03-16T12:48:42.575Z,9.38
2023-03-16T12:49:42.559Z,9.33
2023-03-16T12:50:42.529Z,9.31
2023-03-16T12:51:42.506Z,9.40
2023-03-16T12:52:42.478Z,9.47
2023-03-16T12:53:42.461Z,9.51
2023-03-16T12:54:42.420Z,9.65
2023-03-16T12:55:42.407Z,9.66
2023-03-16T12:56:42.370Z,9.72
2023-03-16T12:57:42.342Z,9.72
2023-03-16T12:58:42.341Z,9.86
2023-03-16T12:59:42.287Z,9.87
2023-03-16T13:00:42.291Z,9.81
2023-03-16T13:01:42.243Z,9.81
2023-03-16T13:02:42.222Z,9.86
2023-03-16T13:03:42.194Z,9.72
2023-03-16T13:04:42.252Z,9.74
2023-03-16T13:05:42.135Z,9.79
2023-03-16T13:06:42.120Z,9.74
2023-03-16T13:07:42.090Z,9.79
2023-03-16T13:08:42.061Z,9.79
2023-03-16T13:09:42.048Z,9.71
2023-03-16T13:10:42.024Z,9.75
2023-03-16T13:11:41.988Z,9.86
2023-03-16T13:12:42.119Z,9.81
2023-03-16T13:13:41.952Z,9.87
2023-03-16T13:14:41.966Z,9.84
2023-03-16T13:15:41.886Z,9.86
2023-03-16T13:16:41.894Z,9.83
2023-03-16T13:17:41.870Z,9.79